EW2958 Weather Reports


Display with metric or nautical units.
time (UTC)temp
F
wind
direction
speed
MPH
gust
MPH
rain 1hr
in
rain 24hr
in
rain mn
in
humidity
%
barometer
mb
20221002223032 51 288 0.0 2.0 0.00 0.00 0.00 91 1021.1
20221002221529 50 272 0.0 2.0 0.00 0.00 0.00 92 1021.2
20221002220028 49 289 1.0 2.0 0.00 0.00 0.00 92 1021.2
20221002214524 48 290 0.0 1.0 0.00 0.00 0.00 92 1021.0
20221002213023 46 290 0.0 1.0 0.00 0.00 0.00 92 1021.0
20221002211523 45 290 0.0 1.0 0.00 0.00 0.00 92 1020.9
20221002210022 44 290 0.0 0.0 0.00 0.00 0.00 92 1021.0
20221002204540 43 290 0.0 1.0 0.00 0.00 0.00 92 1020.9
20221002203030 42 290 1.0 2.0 0.00 0.00 0.00 92 1021.0
20221002201521 42 290 0.0 3.0 0.00 0.00 0.00 92 1021.0
20221002200037 42 292 1.0 2.0 0.00 0.00 0.00 92 1020.9
20221002194519 42 264 1.0 3.0 0.00 0.00 0.00 92 1020.7
20221002193020 43 283 1.0 3.0 0.00 0.00 0.00 92 1020.6
20221002191517 42 294 0.0 2.0 0.00 0.00 0.00 92 1020.5
20221002190014 42 282 0.0 3.0 0.00 0.00 0.00 91 1020.5
20221002184514 43 291 0.0 0.0 0.00 0.01 0.00 91 1020.3
20221002183010 44 295 0.0 0.0 0.00 0.01 0.00 92 1020.3
20221002181512 45 292 0.0 0.0 0.00 0.01 0.00 92 1020.2
20221002180007 44 292 0.0 0.0 0.00 0.01 0.00 91 1020.3
20221002174508 44 292 0.0 0.0 0.00 0.01 0.00 91 1020.3
20221002173006 44 292 0.0 0.0 0.00 0.01 0.00 91 1020.4
20221002171504 43 292 0.0 1.0 0.00 0.01 0.00 91 1020.6
20221002170001 44 291 1.0 3.0 0.00 0.01 0.00 91 1020.8
20221002164600 45 289 0.0 0.0 0.00 0.01 0.00 91 1020.8
20221002163106 45 293 0.0 0.0 0.00 0.01 0.00 91 1020.8
20221002161603 46 293 0.0 0.0 0.00 0.01 0.00 91 1020.8
20221002160106 46 293 0.0 0.0 0.00 0.01 0.00 91 1020.8
20221002154554 45 293 0.0 2.0 0.00 0.01 0.00 91 1021.0
20221002153054 43 295 0.0 2.0 0.00 0.01 0.00 90 1021.2
20221002151552 44 285 1.0 3.0 0.00 0.01 0.00 89 1021.2
20221002150046 47 239 0.0 0.0 0.00 0.01 0.00 89 1021.1
20221002144545 48 239 0.0 0.0 0.00 0.01 0.00 90 1021.1
20221002143044 48 239 0.0 0.0 0.00 0.01 0.00 90 1021.0
20221002141542 48 239 0.0 0.0 0.00 0.01 0.00 90 1021.1
20221002140039 48 239 0.0 0.0 0.00 0.01 0.00 89 1021.0
20221002134538 48 239 0.0 0.0 0.00 0.01 0.01 89 1021.1
20221002133038 48 239 0.0 0.0 0.00 0.01 0.01 89 1021.2
20221002131538 48 239 0.0 0.0 0.00 0.01 0.01 89 1021.3
20221002130039 48 239 0.0 0.0 0.00 0.01 0.01 89 1021.3
20221002124536 48 239 0.0 0.0 0.00 0.01 0.01 89 1021.3
20221002123036 48 239 0.0 0.0 0.00 0.01 0.01 88 1021.3
20221002121542 49 237 0.0 0.0 0.00 0.01 0.01 86 1021.3
20221002120051 50 136 0.0 0.0 0.00 0.01 0.01 86 1021.3
20221002114535 51 136 0.0 0.0 0.00 0.01 0.01 86 1021.2
20221002113033 50 136 0.0 0.0 0.00 0.01 0.01 86 1021.3
20221002111540 51 136 0.0 0.0 0.00 0.01 0.01 85 1021.3
20221002110036 51 136 0.0 0.0 0.00 0.01 0.01 85 1021.2
20221002104532 51 136 0.0 0.0 0.00 0.01 0.01 84 1021.0
20221002103031 52 136 0.0 0.0 0.00 0.01 0.01 84 1020.9
20221002101536 52 136 0.0 0.0 0.00 0.01 0.01 83 1020.8
20221002100040 52 136 0.0 0.0 0.00 0.01 0.01 82 1020.5
20221002064522 58 107 3.0 7.0 0.00 0.01 0.01 68 1019.0
20221002063024 59 115 3.0 8.0 0.00 0.01 0.01 67 1018.9
20221002061521 60 131 2.0 8.0 0.00 0.01 0.01 65 1018.8
20221002060022 60 116 3.0 10.0 0.00 0.01 0.01 67 1018.8
20221002054519 61 124 3.0 8.0 0.00 0.01 0.01 65 1018.9
20221002053018 61 113 3.0 8.0 0.00 0.01 0.01 66 1018.9
20221002051520 62 134 3.0 11.0 0.00 0.01 0.01 64 1018.9
20221002050015 61 127 3.0 7.0 0.00 0.01 0.01 64 1019.1
20221002044516 62 123 3.0 7.0 0.00 0.01 0.01 62 1019.0
20221002043013 63 109 3.0 8.0 0.00 0.01 0.01 62 1019.2
20221002041510 63 131 2.0 6.0 0.00 0.01 0.01 61 1019.2
20221002040116 63 105 3.0 6.0 0.00 0.01 0.01 59 1019.3
20221002034505 63 115 4.0 9.0 0.00 0.01 0.01 59 1019.5
20221002033003 63 98 1.0 6.0 0.00 0.01 0.01 60 1019.6
20221002031509 63 142 2.0 7.0 0.00 0.01 0.01 61 1019.6
20221002030059 63 117 3.0 8.0 0.00 0.01 0.01 59 1019.7
20221002024608 63 109 1.0 5.0 0.00 0.01 0.01 61 1019.9
20221002023055 63 124 2.0 7.0 0.00 0.01 0.01 63 1020.0
20221002021558 63 145 2.0 6.0 0.00 0.01 0.01 62 1020.0
20221002020048 62 225 1.0 6.0 0.00 0.01 0.01 58 1020.1
20221002011538 59 229 5.0 12.0 0.00 0.01 0.01 73 1020.2
20221002010048 56 245 1.0 5.0 0.00 0.01 0.01 92 1020.4
20221002004530 53 258 2.0 6.0 0.00 0.01 0.01 92 1020.6
20221002003030 53 248 2.0 9.0 0.00 0.01 0.01 93 1020.6
20221002001527 52 249 2.0 5.0 0.00 0.01 0.01 93 1020.7
20221002000025 52 262 1.0 6.0 0.00 0.01 0.01 93 1020.8
20221001234523 51 278 5.0 8.0 0.00 0.01 0.01 93 1020.9
20221001233028 50 215 4.0 10.0 0.00 0.01 0.01 93 1020.9
20221001231518 50 259 4.0 9.0 0.00 0.01 0.01 93 1020.8
20221001230017 49 252 2.0 9.0 0.00 0.01 0.01 93 1020.9